createdAt,value
2018-12-31T00:00:09.912Z,2.83
2018-12-31T00:02:40.101Z,2.10
2018-12-31T00:05:09.726Z,2.73
2018-12-31T00:07:39.139Z,2.83
2018-12-31T00:10:09.356Z,2.17
2018-12-31T00:12:38.743Z,2.73
2018-12-31T00:15:09.248Z,2.80
2018-12-31T00:17:38.619Z,2.00
2018-12-31T00:20:08.259Z,2.85
2018-12-31T00:22:38.054Z,3.10
2018-12-31T00:25:07.687Z,3.00
2018-12-31T00:27:37.067Z,3.03
2018-12-31T00:30:07.653Z,3.40
2018-12-31T00:32:37.025Z,3.80
2018-12-31T00:35:06.409Z,2.63
2018-12-31T00:37:36.058Z,3.30
2018-12-31T00:40:06.079Z,2.73
2018-12-31T00:42:35.445Z,3.37
2018-12-31T00:45:05.788Z,2.70
2018-12-31T00:47:35.156Z,3.10
2018-12-31T00:50:05.186Z,2.60
2018-12-31T00:52:34.587Z,3.90
2018-12-31T00:55:03.966Z,2.63
2018-12-31T00:57:33.372Z,3.35
2018-12-31T01:00:02.847Z,2.57
2018-12-31T01:02:32.226Z,2.73
2018-12-31T01:05:01.606Z,3.07
2018-12-31T01:07:31.598Z,2.20
2018-12-31T01:10:01.049Z,2.90
2018-12-31T01:12:30.417Z,2.77
2018-12-31T01:14:59.824Z,2.43
2018-12-31T01:17:29.200Z,2.67
2018-12-31T01:19:58.570Z,3.20
2018-12-31T01:22:27.981Z,2.80
2018-12-31T01:24:57.355Z,3.97
2018-12-31T01:27:26.742Z,2.97
2018-12-31T01:29:56.141Z,2.70
2018-12-31T01:32:25.515Z,3.60
2018-12-31T01:34:54.889Z,3.63
2018-12-31T01:37:24.289Z,3.70
2018-12-31T01:39:53.662Z,2.40
2018-12-31T01:42:23.047Z,2.97
2018-12-31T01:44:52.448Z,3.00
2018-12-31T01:47:21.826Z,3.07
2018-12-31T01:49:51.205Z,2.87
2018-12-31T01:52:20.909Z,3.40
2018-12-31T01:54:50.280Z,2.80
2018-12-31T01:57:19.662Z,3.50
2018-12-31T01:59:49.069Z,2.83
2018-12-31T02:02:18.449Z,2.30
2018-12-31T02:04:47.867Z,3.23
2018-12-31T02:07:17.263Z,3.10
2018-12-31T02:09:46.957Z,2.40
2018-12-31T02:12:16.347Z,2.50
2018-12-31T02:14:46.196Z,2.87
2018-12-31T02:17:15.572Z,2.90
2018-12-31T02:19:44.954Z,3.77
2018-12-31T02:22:14.460Z,3.00
2018-12-31T02:24:43.838Z,2.67
2018-12-31T02:27:13.215Z,2.50
2018-12-31T02:29:42.631Z,2.97
2018-12-31T02:32:12.010Z,3.80
2018-12-31T02:34:41.414Z,4.17
2018-12-31T02:37:11.336Z,3.37
2018-12-31T02:39:41.020Z,3.03
2018-12-31T02:42:10.394Z,3.27
2018-12-31T02:44:39.791Z,3.20
2018-12-31T02:47:09.170Z,3.30
2018-12-31T02:49:38.543Z,5.10
2018-12-31T02:52:07.940Z,2.67
2018-12-31T02:54:37.321Z,3.10
2018-12-31T02:57:06.797Z,3.17
2018-12-31T02:59:36.653Z,2.70
2018-12-31T03:02:06.028Z,3.40
2018-12-31T03:04:35.403Z,3.57
2018-12-31T03:07:05.126Z,2.73
2018-12-31T03:09:34.754Z,3.50
2018-12-31T03:12:04.772Z,3.00
2018-12-31T03:14:34.180Z,3.20
2018-12-31T03:17:03.572Z,3.30
2018-12-31T03:19:33.298Z,4.07
2018-12-31T03:22:02.992Z,2.93
2018-12-31T03:24:32.366Z,3.43
2018-12-31T03:27:01.744Z,4.17
2018-12-31T03:29:31.136Z,3.63
2018-12-31T03:32:00.518Z,3.55
2018-12-31T03:34:29.898Z,4.53
2018-12-31T03:36:59.287Z,4.10
2018-12-31T03:39:28.667Z,4.67
2018-12-31T03:41:58.040Z,3.50
2018-12-31T03:44:27.776Z,4.07
2018-12-31T03:46:57.448Z,4.17
2018-12-31T03:49:26.818Z,3.47
2018-12-31T03:51:56.230Z,3.37
2018-12-31T03:54:25.617Z,3.20
2018-12-31T03:56:55.258Z,3.27
2018-12-31T03:59:24.648Z,5.17
2018-12-31T04:01:54.045Z,3.50
2018-12-31T04:04:23.414Z,3.77
2018-12-31T04:06:52.819Z,4.10
2018-12-31T04:09:22.203Z,4.07
2018-12-31T04:11:51.577Z,4.17
2018-12-31T04:14:21.222Z,5.57
2018-12-31T04:16:50.594Z,3.97
2018-12-31T04:19:19.967Z,4.10
2018-12-31T04:21:49.711Z,4.57
2018-12-31T04:24:19.081Z,5.07
2018-12-31T04:26:48.459Z,5.23
2018-12-31T04:29:18.156Z,4.13
2018-12-31T04:31:47.532Z,3.97
2018-12-31T04:34:16.905Z,3.43
2018-12-31T04:36:46.313Z,6.33
2018-12-31T04:39:15.687Z,4.80
2018-12-31T04:41:45.068Z,5.90
2018-12-31T04:44:14.447Z,4.93
2018-12-31T04:46:43.830Z,3.77
2018-12-31T04:49:13.203Z,5.00
2018-12-31T04:51:42.607Z,5.23
2018-12-31T04:54:11.984Z,6.33
2018-12-31T04:56:41.352Z,6.23
2018-12-31T04:59:10.782Z,6.20
2018-12-31T05:01:40.120Z,4.83
2018-12-31T05:04:09.499Z,5.07
2018-12-31T05:06:39.157Z,4.47
2018-12-31T05:09:08.533Z,4.27
2018-12-31T05:11:37.907Z,5.10
2018-12-31T05:14:07.583Z,4.27
2018-12-31T05:16:36.991Z,4.73
2018-12-31T05:19:06.368Z,4.73
2018-12-31T05:21:35.751Z,4.70
2018-12-31T05:24:05.129Z,4.93
2018-12-31T05:26:34.502Z,5.70
2018-12-31T05:29:04.191Z,4.97
2018-12-31T05:31:33.567Z,5.30
2018-12-31T05:34:02.942Z,5.23
2018-12-31T05:36:32.552Z,5.63
2018-12-31T05:39:01.924Z,5.07
2018-12-31T05:41:31.299Z,5.67
2018-12-31T05:44:00.701Z,5.20
2018-12-31T05:46:30.065Z,5.93
2018-12-31T05:48:59.437Z,8.57
2018-12-31T05:51:28.838Z,5.97
2018-12-31T05:53:58.218Z,6.90
2018-12-31T05:56:27.591Z,6.40
2018-12-31T05:58:57.010Z,6.17
2018-12-31T06:01:26.385Z,7.93
2018-12-31T06:03:55.757Z,8.53
2018-12-31T06:06:25.139Z,6.47
2018-12-31T06:08:54.519Z,6.93
2018-12-31T06:11:23.901Z,7.37
2018-12-31T06:13:53.289Z,6.63
2018-12-31T06:16:22.661Z,7.07
2018-12-31T06:18:52.480Z,6.40
2018-12-31T06:21:22.213Z,7.22
2018-12-31T06:23:51.596Z,7.53
2018-12-31T06:26:21.280Z,8.00
2018-12-31T06:28:50.682Z,6.60
2018-12-31T06:31:20.062Z,7.33
2018-12-31T06:33:49.453Z,7.43
2018-12-31T06:36:18.854Z,6.57
2018-12-31T06:38:48.218Z,6.87
2018-12-31T06:41:17.601Z,7.03
2018-12-31T06:43:47.340Z,7.90
2018-12-31T06:46:16.732Z,6.80
2018-12-31T06:48:46.421Z,7.57
2018-12-31T06:51:15.810Z,7.53
2018-12-31T06:53:45.193Z,6.97
2018-12-31T06:56:14.574Z,6.87
2018-12-31T06:58:44.002Z,7.47
2018-12-31T07:01:13.421Z,7.07
2018-12-31T07:03:42.789Z,7.30
2018-12-31T07:06:12.550Z,7.22
2018-12-31T07:08:42.303Z,7.23
2018-12-31T07:11:11.682Z,8.47
2018-12-31T07:13:41.081Z,8.80
2018-12-31T07:16:10.468Z,7.97
2018-12-31T07:18:39.851Z,8.30
2018-12-31T07:21:09.515Z,8.60
2018-12-31T07:23:38.913Z,8.23
2018-12-31T07:26:09.958Z,7.67
2018-12-31T07:28:39.566Z,7.80
2018-12-31T07:31:08.951Z,7.00
2018-12-31T07:33:38.334Z,7.50
2018-12-31T07:36:07.742Z,7.50
2018-12-31T07:38:37.133Z,10.40
2018-12-31T07:41:06.515Z,8.63
2018-12-31T07:43:35.923Z,6.90
2018-12-31T07:46:05.334Z,7.00
2018-12-31T07:48:34.724Z,7.23
2018-12-31T07:51:04.566Z,7.60
2018-12-31T07:53:33.960Z,6.53
2018-12-31T07:56:03.413Z,6.73
2018-12-31T07:58:33.110Z,7.47
2018-12-31T08:01:02.495Z,6.83
2018-12-31T08:03:31.865Z,7.00
2018-12-31T08:06:01.258Z,7.27
2018-12-31T08:08:30.637Z,8.23
2018-12-31T08:11:00.019Z,7.30
2018-12-31T08:13:29.442Z,7.03
2018-12-31T08:15:58.827Z,6.50
2018-12-31T08:18:28.206Z,7.40
2018-12-31T08:20:57.605Z,6.30
2018-12-31T08:23:27.446Z,6.17
2018-12-31T08:25:56.859Z,7.07
2018-12-31T08:28:26.661Z,6.27
2018-12-31T08:30:56.068Z,7.10
2018-12-31T08:33:25.452Z,6.43
2018-12-31T08:35:55.300Z,7.20
2018-12-31T08:38:24.703Z,7.10
2018-12-31T08:40:54.223Z,6.53
2018-12-31T08:43:23.571Z,6.33
2018-12-31T08:45:53.004Z,6.07
2018-12-31T08:48:22.430Z,6.73
2018-12-31T08:50:52.098Z,6.60
2018-12-31T08:53:21.469Z,6.73
2018-12-31T08:55:50.862Z,6.50
2018-12-31T08:58:20.320Z,7.10
2018-12-31T09:00:49.947Z,6.70
2018-12-31T09:03:19.329Z,6.80
2018-12-31T09:05:48.733Z,6.05
2018-12-31T09:08:18.116Z,6.90
2018-12-31T09:10:47.497Z,6.47
2018-12-31T09:13:16.888Z,6.20
2018-12-31T09:15:46.332Z,6.17
2018-12-31T09:18:15.955Z,6.13
2018-12-31T09:20:46.223Z,7.67
2018-12-31T09:23:15.605Z,7.73
2018-12-31T09:25:45.906Z,6.50
2018-12-31T09:28:15.321Z,7.90
2018-12-31T09:30:44.711Z,7.30
2018-12-31T09:33:14.103Z,7.77
2018-12-31T09:35:43.524Z,7.00
2018-12-31T09:38:12.909Z,6.07
2018-12-31T09:40:42.283Z,7.10
2018-12-31T09:43:11.948Z,7.07
2018-12-31T09:45:41.338Z,7.73
2018-12-31T09:48:10.753Z,7.03
2018-12-31T09:50:40.144Z,7.03
2018-12-31T09:53:09.530Z,7.03
2018-12-31T09:55:38.941Z,6.80
2018-12-31T09:58:08.332Z,6.47
2018-12-31T10:00:37.713Z,7.10
2018-12-31T10:03:07.097Z,6.03
2018-12-31T10:05:36.874Z,6.70
2018-12-31T10:08:06.253Z,6.33
2018-12-31T10:10:35.640Z,5.50
2018-12-31T10:13:05.105Z,6.30
2018-12-31T10:15:34.481Z,6.37
2018-12-31T10:18:03.867Z,6.67
2018-12-31T10:20:33.256Z,5.93
2018-12-31T10:23:02.661Z,6.10
2018-12-31T10:25:32.116Z,6.43
2018-12-31T10:28:02.492Z,6.57
2018-12-31T10:30:31.791Z,6.97
2018-12-31T10:33:01.169Z,6.03
2018-12-31T10:35:30.562Z,6.25
2018-12-31T10:38:00.177Z,5.87
2018-12-31T10:40:29.560Z,6.60
2018-12-31T10:42:58.974Z,6.10
2018-12-31T10:45:28.363Z,6.57
2018-12-31T10:47:57.745Z,6.70
2018-12-31T10:50:27.385Z,5.93
2018-12-31T10:52:56.837Z,6.70
2018-12-31T10:55:26.213Z,6.97
2018-12-31T10:57:55.602Z,6.77
2018-12-31T11:00:24.999Z,6.63
2018-12-31T11:02:54.377Z,5.40
2018-12-31T11:05:23.767Z,5.80
2018-12-31T11:07:53.160Z,5.77
2018-12-31T11:10:22.543Z,4.97
2018-12-31T11:12:51.959Z,5.30
2018-12-31T11:15:21.363Z,6.47
2018-12-31T11:17:50.735Z,5.83
2018-12-31T11:20:20.153Z,6.27
2018-12-31T11:22:49.540Z,5.47
2018-12-31T11:25:18.915Z,5.70
2018-12-31T11:27:48.318Z,6.23
2018-12-31T11:30:18.385Z,5.60
2018-12-31T11:32:47.758Z,6.47
2018-12-31T11:35:17.462Z,6.67
2018-12-31T11:37:46.886Z,7.17
2018-12-31T11:40:16.224Z,6.23
2018-12-31T11:42:45.666Z,5.37
2018-12-31T11:45:14.992Z,6.13
2018-12-31T11:47:44.371Z,6.23
2018-12-31T11:50:13.782Z,6.30
2018-12-31T11:52:43.255Z,5.73
2018-12-31T11:55:12.638Z,7.33
2018-12-31T11:57:42.581Z,6.27
2018-12-31T12:00:11.958Z,6.73
2018-12-31T12:02:41.343Z,5.83
2018-12-31T12:05:10.739Z,6.70
2018-12-31T12:07:40.170Z,7.20
2018-12-31T12:10:09.650Z,5.67
2018-12-31T12:12:39.046Z,5.73
2018-12-31T12:15:09.060Z,6.37
2018-12-31T12:17:38.432Z,5.50
2018-12-31T12:20:09.143Z,5.83
2018-12-31T12:22:38.518Z,5.37
2018-12-31T12:25:08.223Z,6.03
2018-12-31T12:27:37.616Z,5.13
2018-12-31T12:30:09.251Z,5.33
2018-12-31T12:32:40.078Z,5.47
2018-12-31T12:35:09.446Z,4.80
2018-12-31T12:37:38.828Z,5.73
2018-12-31T12:40:09.339Z,6.20
2018-12-31T12:42:38.810Z,6.93
2018-12-31T12:45:09.515Z,5.43
2018-12-31T12:47:38.866Z,5.73
2018-12-31T12:50:09.091Z,6.22
2018-12-31T12:52:38.476Z,5.70
2018-12-31T12:55:08.099Z,5.10
2018-12-31T12:57:37.513Z,5.30
2018-12-31T13:00:07.520Z,5.07
2018-12-31T13:02:36.893Z,4.77
2018-12-31T13:05:06.548Z,5.90
2018-12-31T13:07:36.306Z,4.33
2018-12-31T13:10:07.036Z,4.90
2018-12-31T13:12:36.813Z,5.90
2018-12-31T13:15:07.054Z,4.97
2018-12-31T13:17:36.463Z,4.63
2018-12-31T13:20:06.312Z,5.37
2018-12-31T13:22:35.683Z,4.77
2018-12-31T13:25:05.461Z,4.93
2018-12-31T13:27:35.109Z,5.50
2018-12-31T13:30:05.523Z,5.27
2018-12-31T13:32:34.918Z,5.27
2018-12-31T13:35:04.609Z,4.63
2018-12-31T13:37:33.982Z,4.60
2018-12-31T13:40:03.358Z,4.97
2018-12-31T13:42:32.755Z,5.40
2018-12-31T13:45:02.135Z,5.10
2018-12-31T13:47:31.532Z,5.17
2018-12-31T13:50:00.944Z,4.53
2018-12-31T13:52:30.408Z,5.23
2018-12-31T13:55:00.166Z,5.50
2018-12-31T13:57:29.568Z,4.80
2018-12-31T13:59:58.941Z,4.80
2018-12-31T14:02:28.323Z,5.50
2018-12-31T14:04:57.806Z,4.60
2018-12-31T14:07:28.359Z,4.43
2018-12-31T14:09:57.730Z,4.87
2018-12-31T14:12:27.333Z,5.43
2018-12-31T14:14:56.717Z,4.73
2018-12-31T14:17:26.101Z,4.80
2018-12-31T14:19:55.515Z,4.43
2018-12-31T14:22:24.897Z,4.37
2018-12-31T14:24:54.350Z,4.80
2018-12-31T14:27:24.016Z,5.13
2018-12-31T14:29:53.388Z,4.80
2018-12-31T14:32:22.771Z,5.03
2018-12-31T14:34:52.346Z,5.33
2018-12-31T14:37:23.001Z,5.40
2018-12-31T14:39:52.377Z,4.90
2018-12-31T14:42:22.147Z,4.60
2018-12-31T14:44:51.526Z,4.63
2018-12-31T14:47:20.913Z,3.87
2018-12-31T14:49:50.298Z,4.70
2018-12-31T14:52:19.671Z,4.90
2018-12-31T14:54:49.338Z,4.70
2018-12-31T14:57:19.050Z,4.47
2018-12-31T14:59:48.428Z,5.30
2018-12-31T15:02:17.817Z,4.63
2018-12-31T15:04:47.211Z,4.73
2018-12-31T15:07:16.599Z,5.20
2018-12-31T15:09:45.972Z,5.10
2018-12-31T15:12:15.368Z,5.77
2018-12-31T15:14:44.740Z,5.40
2018-12-31T15:17:14.434Z,5.77
2018-12-31T15:19:44.119Z,5.93
2018-12-31T15:22:13.498Z,6.10
2018-12-31T15:24:43.152Z,6.93
2018-12-31T15:27:12.555Z,7.67
2018-12-31T15:29:41.929Z,7.57
2018-12-31T15:32:11.317Z,9.07
2018-12-31T15:34:40.714Z,12.23
2018-12-31T15:37:10.087Z,7.80
2018-12-31T15:39:40.520Z,9.27
2018-12-31T15:42:10.454Z,8.43
2018-12-31T15:44:39.834Z,9.23
2018-12-31T15:47:09.342Z,17.60
2018-12-31T15:49:38.714Z,10.83
2018-12-31T15:52:08.110Z,11.13
2018-12-31T15:54:37.765Z,10.57
2018-12-31T15:57:07.187Z,10.33
2018-12-31T15:59:36.567Z,11.57
2018-12-31T16:02:05.956Z,10.77
2018-12-31T16:04:35.657Z,12.40
2018-12-31T16:07:05.417Z,13.97
2018-12-31T16:09:34.805Z,12.03
2018-12-31T16:12:04.210Z,13.60
2018-12-31T16:14:33.586Z,13.97
2018-12-31T16:17:02.978Z,13.23
2018-12-31T16:19:32.679Z,13.37
2018-12-31T16:22:02.070Z,13.27
2018-12-31T16:24:31.442Z,14.33
2018-12-31T16:27:01.139Z,16.57
2018-12-31T16:29:30.546Z,16.70
2018-12-31T16:32:00.319Z,13.87
2018-12-31T16:34:29.713Z,15.50
2018-12-31T16:36:59.125Z,99.17
2018-12-31T16:39:28.485Z,32.13
2018-12-31T16:41:58.784Z,39.27
2018-12-31T16:44:28.187Z,30.57
2018-12-31T16:46:57.563Z,52.73
2018-12-31T16:49:27.008Z,28.17
2018-12-31T16:52:02.632Z,72.13
2018-12-31T16:54:27.581Z,42.00
2018-12-31T16:56:56.975Z,21.40
2018-12-31T16:59:26.364Z,44.63
2018-12-31T17:01:55.747Z,26.83
2018-12-31T17:04:25.142Z,19.00
2018-12-31T17:06:54.535Z,17.03
2018-12-31T17:09:23.918Z,15.40
2018-12-31T17:11:53.379Z,15.77
2018-12-31T17:14:22.764Z,15.93
2018-12-31T17:16:52.157Z,22.30
2018-12-31T17:19:21.560Z,18.63
2018-12-31T17:21:50.946Z,23.30
2018-12-31T17:24:20.325Z,21.17
2018-12-31T17:26:49.729Z,22.75
2018-12-31T17:29:19.188Z,21.90
2018-12-31T17:31:48.584Z,19.80
2018-12-31T17:34:18.000Z,21.67
2018-12-31T17:36:47.390Z,20.37
2018-12-31T17:39:16.802Z,18.73
2018-12-31T17:41:46.175Z,18.70
2018-12-31T17:44:16.992Z,17.70
2018-12-31T17:46:46.375Z,18.30
2018-12-31T17:49:15.767Z,19.00
2018-12-31T17:51:45.153Z,19.33
2018-12-31T17:54:14.810Z,24.77
2018-12-31T17:56:44.774Z,21.73
2018-12-31T17:59:14.178Z,21.77
2018-12-31T18:01:43.566Z,24.40
2018-12-31T18:04:12.973Z,22.57
2018-12-31T18:06:43.471Z,22.07
2018-12-31T18:09:13.348Z,19.07
2018-12-31T18:11:42.754Z,58.27
2018-12-31T18:14:12.138Z,30.43
2018-12-31T18:16:41.525Z,26.63
2018-12-31T18:19:11.039Z,24.67
2018-12-31T18:21:40.657Z,31.90
2018-12-31T18:24:10.028Z,45.20
2018-12-31T18:26:39.424Z,25.50
2018-12-31T18:29:08.808Z,27.30
2018-12-31T18:31:38.208Z,24.67
2018-12-31T18:34:07.786Z,24.73
2018-12-31T18:36:37.176Z,26.10
2018-12-31T18:39:07.701Z,26.03
2018-12-31T18:41:37.871Z,21.53
2018-12-31T18:44:07.250Z,23.10
2018-12-31T18:46:37.339Z,22.37
2018-12-31T18:49:06.997Z,21.53
2018-12-31T18:51:36.385Z,21.53
2018-12-31T18:54:05.781Z,28.90
2018-12-31T18:56:35.187Z,51.67
2018-12-31T18:59:04.573Z,29.27
2018-12-31T19:01:33.969Z,21.10
2018-12-31T19:04:03.402Z,25.00
2018-12-31T19:06:32.783Z,55.33
2018-12-31T19:09:02.173Z,68.00
2018-12-31T19:11:31.574Z,43.97
2018-12-31T19:14:00.973Z,31.53
2018-12-31T19:16:30.707Z,30.30
2018-12-31T19:19:00.558Z,25.53
2018-12-31T19:21:30.268Z,44.67
2018-12-31T19:23:59.651Z,70.07
2018-12-31T19:26:29.087Z,42.07
2018-12-31T19:28:58.471Z,20.13
2018-12-31T19:31:27.853Z,20.83
2018-12-31T19:33:57.276Z,18.67
2018-12-31T19:36:26.670Z,17.13
2018-12-31T19:38:56.051Z,17.80
2018-12-31T19:41:25.462Z,18.50
2018-12-31T19:43:54.844Z,16.97
2018-12-31T19:46:24.235Z,19.83
2018-12-31T19:48:54.355Z,21.63
2018-12-31T19:51:23.762Z,25.63
2018-12-31T19:53:53.140Z,19.63
2018-12-31T19:56:22.547Z,23.03
2018-12-31T19:58:51.935Z,26.00
2018-12-31T20:01:21.331Z,22.37
2018-12-31T20:03:51.008Z,22.53
2018-12-31T20:06:20.395Z,26.00
2018-12-31T20:08:49.792Z,25.17
2018-12-31T20:11:19.699Z,66.07
2018-12-31T20:13:49.085Z,26.83
2018-12-31T20:16:18.465Z,61.93
2018-12-31T20:18:47.867Z,56.20
2018-12-31T20:21:17.268Z,28.10
2018-12-31T20:23:46.653Z,67.63
2018-12-31T20:26:16.384Z,37.60
2018-12-31T20:28:45.833Z,23.87
2018-12-31T20:31:15.219Z,29.83
2018-12-31T20:33:45.147Z,26.37
2018-12-31T20:36:14.557Z,30.02
2018-12-31T20:38:44.218Z,24.53
2018-12-31T20:41:13.622Z,21.57
2018-12-31T20:43:43.003Z,24.10
2018-12-31T20:46:12.475Z,41.47
2018-12-31T20:48:41.874Z,25.03
2018-12-31T20:51:11.950Z,29.20
2018-12-31T20:53:41.335Z,34.93
2018-12-31T20:56:11.214Z,28.60
2018-12-31T20:58:40.590Z,22.93
2018-12-31T21:01:09.993Z,21.63
2018-12-31T21:03:39.394Z,55.80
2018-12-31T21:06:08.785Z,23.80
2018-12-31T21:08:38.160Z,50.27
2018-12-31T21:11:07.566Z,21.57
2018-12-31T21:13:36.947Z,20.67
2018-12-31T21:16:06.330Z,23.60
2018-12-31T21:18:37.319Z,31.60
2018-12-31T21:21:06.892Z,37.83
2018-12-31T21:23:36.286Z,27.07
2018-12-31T21:26:05.735Z,25.67
2018-12-31T21:28:35.111Z,43.50
2018-12-31T21:31:04.494Z,26.10
2018-12-31T21:33:33.879Z,26.23
2018-12-31T21:36:03.562Z,33.47
2018-12-31T21:38:32.946Z,35.30
2018-12-31T21:41:02.613Z,33.23
2018-12-31T21:43:32.273Z,22.47
2018-12-31T21:46:01.666Z,27.90
2018-12-31T21:48:31.048Z,20.23
2018-12-31T21:51:00.516Z,19.67
2018-12-31T21:53:31.053Z,40.83
2018-12-31T21:56:00.492Z,23.10
2018-12-31T21:58:29.845Z,23.80
2018-12-31T22:00:59.245Z,20.30
2018-12-31T22:03:28.975Z,18.70
2018-12-31T22:05:58.400Z,18.40
2018-12-31T22:08:27.772Z,18.27
2018-12-31T22:10:57.171Z,19.87
2018-12-31T22:13:26.561Z,19.37
2018-12-31T22:15:56.252Z,20.67
2018-12-31T22:18:25.963Z,44.83
2018-12-31T22:20:55.353Z,82.77
2018-12-31T22:23:24.729Z,58.60
2018-12-31T22:25:54.521Z,29.17
2018-12-31T22:28:23.909Z,26.00
2018-12-31T22:30:53.306Z,23.30
2018-12-31T22:33:22.691Z,41.90
2018-12-31T22:35:52.092Z,57.50
2018-12-31T22:38:21.461Z,44.93
2018-12-31T22:40:50.864Z,33.57
2018-12-31T22:43:20.240Z,31.90
2018-12-31T22:45:49.629Z,26.53
2018-12-31T22:48:19.457Z,32.77
2018-12-31T22:50:48.837Z,46.97
2018-12-31T22:53:18.217Z,31.87
2018-12-31T22:55:48.695Z,61.67
2018-12-31T22:58:18.174Z,25.20
2018-12-31T23:00:48.769Z,67.67
2018-12-31T23:03:18.173Z,197.67
2018-12-31T23:05:47.590Z,131.27
2018-12-31T23:08:17.331Z,55.97
2018-12-31T23:10:46.769Z,74.90
2018-12-31T23:13:16.152Z,100.33
2018-12-31T23:15:47.427Z,109.37
2018-12-31T23:18:16.906Z,143.67
2018-12-31T23:20:46.385Z,391.30
2018-12-31T23:23:15.766Z,164.70
2018-12-31T23:25:45.190Z,137.27
2018-12-31T23:28:14.572Z,154.07
2018-12-31T23:30:43.979Z,241.63
2018-12-31T23:33:13.566Z,177.17
2018-12-31T23:35:42.976Z,124.57
2018-12-31T23:38:12.358Z,129.00
2018-12-31T23:40:41.801Z,173.40
2018-12-31T23:43:11.167Z,133.00
2018-12-31T23:45:40.868Z,230.50
2018-12-31T23:48:10.257Z,122.10
2018-12-31T23:50:39.657Z,90.27
2018-12-31T23:53:09.036Z,87.53
2018-12-31T23:55:38.954Z,129.30
2018-12-31T23:58:08.558Z,83.67
